Time;durP1;ratioP1;P1;durP2;ratioP2;P2;SDS_P1;SDS_P2;PMS_P1;PMS_P2;Temp;Humidity;BMP_temperature;BMP_pressure;BME280_temperature;BME280_humidity;BME280_pressure;Samples;Min_cycle;Max_cycle;Signal;HPM_P1;HPM_P2
2022/04/05 02:19:46;;;;;;;28.00;26.20;;;6.20;99.90;;;;;;6011693;23;20420;-75
2022/04/05 02:22:13;;;;;;;27.80;26.17;;;6.00;99.90;;;;;;5009341;28;20487;-75
2022/04/05 02:24:40;;;;;;;27.70;26.00;;;6.00;99.90;;;;;;5010897;28;20949;-76
2022/04/05 02:27:07;;;;;;;28.00;26.07;;;6.00;99.90;;;;;;5017544;28;21000;-76
2022/04/05 02:29:34;;;;;;;28.73;26.40;;;5.90;99.90;;;;;;5019343;28;20503;-75
2022/04/05 02:32:01;;;;;;;27.60;26.10;;;5.90;99.90;;;;;;5013505;28;20468;-75
2022/04/05 02:34:28;;;;;;;27.20;25.60;;;5.90;99.90;;;;;;5019594;28;20950;-76
2022/04/05 02:36:55;;;;;;;27.77;26.17;;;5.90;99.90;;;;;;5018096;28;20450;-75
2022/04/05 02:39:22;;;;;;;29.77;27.87;;;5.90;99.90;;;;;;5018162;28;20788;-75
2022/04/05 02:41:49;;;;;;;26.93;25.23;;;5.80;99.90;;;;;;5020424;28;20441;-74
2022/04/05 02:44:16;;;;;;;29.20;27.40;;;5.90;99.90;;;;;;5018688;28;20438;-75
2022/04/05 02:46:42;;;;;;;28.20;26.13;;;5.90;99.90;;;;;;5018946;28;20452;-75
2022/04/05 02:49:13;;;;;;;28.77;26.97;;;5.80;99.90;;;;;;5026952;28;21103;-75
2022/04/05 02:51:40;;;;;;;34.47;32.47;;;5.80;99.90;;;;;;5030601;28;20457;-76
2022/04/05 02:54:08;;;;;;;33.70;31.80;;;5.80;99.90;;;;;;5030609;28;20505;-76
2022/04/05 02:56:34;;;;;;;37.23;35.03;;;5.80;99.90;;;;;;5032673;28;20457;-76
2022/04/05 02:59:01;;;;;;;35.47;33.53;;;5.80;99.90;;;;;;5034413;28;20467;-76
2022/04/05 03:01:28;;;;;;;36.33;34.23;;;5.80;99.90;;;;;;5034696;28;20460;-75
2022/04/05 03:03:54;;;;;;;36.73;34.43;;;5.80;99.90;;;;;;5034802;28;20470;-76
2022/04/05 03:06:21;;;;;;;35.97;33.97;;;5.80;99.90;;;;;;5034381;28;20851;-76
2022/04/05 03:08:48;;;;;;;37.10;35.03;;;5.80;99.90;;;;;;5034400;28;20873;-76
2022/04/05 03:11:16;;;;;;;38.17;35.97;;;5.80;99.90;;;;;;5034537;28;20452;-76
2022/04/05 03:13:42;;;;;;;37.70;35.50;;;5.80;99.90;;;;;;5034662;28;20857;-76
2022/04/05 03:16:09;;;;;;;38.30;36.10;;;5.80;99.90;;;;;;5034600;28;20497;-76
2022/04/05 03:18:36;;;;;;;38.60;36.30;;;5.70;99.90;;;;;;5034293;28;20466;-76
2022/04/05 03:21:03;;;;;;;39.07;36.83;;;5.70;99.90;;;;;;5033868;28;20482;-76
2022/04/05 03:23:29;;;;;;;38.67;36.40;;;5.70;99.90;;;;;;5033992;28;20452;-77
2022/04/05 03:25:56;;;;;;;38.23;36.23;;;5.80;99.90;;;;;;5034188;28;20465;-76
2022/04/05 03:28:25;;;;;;;38.47;36.07;;;5.80;99.90;;;;;;5034203;28;20485;-78
2022/04/05 03:30:51;;;;;;;41.50;39.10;;;5.80;99.90;;;;;;5033939;28;20461;-77
2022/04/05 03:33:18;;;;;;;38.83;36.43;;;5.70;99.90;;;;;;5005863;28;20465;-78
2022/04/05 03:35:46;;;;;;;40.03;37.60;;;5.70;99.90;;;;;;4994544;28;20516;-78
2022/04/05 03:38:13;;;;;;;39.80;37.40;;;5.70;99.90;;;;;;4994896;28;20461;-77
2022/04/05 03:40:40;;;;;;;39.20;36.80;;;5.70;99.90;;;;;;4994822;28;20457;-78
2022/04/05 03:43:11;;;;;;;37.63;35.27;;;5.70;99.90;;;;;;4994324;28;20547;-80
2022/04/05 03:45:39;;;;;;;40.70;38.20;;;5.60;99.90;;;;;;4994898;28;20854;-80
2022/04/05 03:48:06;;;;;;;40.60;37.90;;;5.60;99.90;;;;;;4994685;28;20489;-84
2022/04/05 03:50:34;;;;;;;40.17;37.40;;;5.60;99.90;;;;;;4999978;28;20450;-85
2022/04/05 03:53:00;;;;;;;38.47;36.30;;;5.50;99.90;;;;;;4994962;28;20558;-85
2022/04/05 03:55:27;;;;;;;39.40;37.10;;;5.50;99.90;;;;;;4995165;28;20449;-85
2022/04/05 03:57:54;;;;;;;41.30;38.57;;;5.50;99.90;;;;;;4995014;28;20446;-83
2022/04/05 04:00:20;;;;;;;41.53;38.83;;;5.50;99.90;;;;;;4994887;28;20514;-84
2022/04/05 04:02:48;;;;;;;40.37;37.80;;;5.50;99.90;;;;;;4994110;28;20451;-83
2022/04/05 04:05:19;;;;;;;40.07;37.87;;;5.60;99.90;;;;;;4994654;28;20509;-83
2022/04/05 04:07:45;;;;;;;39.90;37.60;;;5.50;99.90;;;;;;4992703;28;20525;-83
2022/04/05 04:10:12;;;;;;;40.27;37.97;;;5.50;99.90;;;;;;4996082;28;20451;-86
2022/04/05 04:12:39;;;;;;;39.63;37.20;;;5.50;99.90;;;;;;4995451;28;20509;-85
2022/04/05 04:15:07;;;;;;;40.00;37.70;;;5.50;99.90;;;;;;4994623;28;20455;-85
2022/04/05 04:17:33;;;;;;;41.40;38.90;;;5.50;99.90;;;;;;4995029;28;20577;-87
2022/04/05 04:20:01;;;;;;;40.33;38.00;;;5.50;99.90;;;;;;4994452;28;20479;-85
2022/04/05 04:22:28;;;;;;;39.70;37.30;;;5.50;99.90;;;;;;4994566;28;20776;-85
2022/04/05 04:24:56;;;;;;;39.07;36.77;;;5.50;99.90;;;;;;4999644;28;20442;-85
2022/04/05 04:27:23;;;;;;;39.10;36.80;;;5.50;99.90;;;;;;4999857;28;20522;-86
2022/04/05 04:29:49;;;;;;;41.33;39.00;;;5.50;99.90;;;;;;4993606;28;20576;-80
2022/04/05 04:32:16;;;;;;;40.17;38.03;;;5.60;99.90;;;;;;4994418;28;20494;-84
2022/04/05 04:34:43;;;;;;;39.70;37.50;;;5.50;99.90;;;;;;5002100;28;20454;-82
2022/04/05 04:37:11;;;;;;;41.53;39.13;;;5.60;99.90;;;;;;5013730;28;20453;-83
2022/04/05 04:39:38;;;;;;;40.37;37.77;;;5.60;99.90;;;;;;5013248;28;20446;-79
2022/04/05 04:42:05;;;;;;;41.53;38.90;;;5.60;99.90;;;;;;5012961;28;20468;-80
2022/04/05 04:44:32;;;;;;;40.00;37.70;;;5.60;99.90;;;;;;5013040;28;21179;-78
2022/04/05 04:46:59;;;;;;;40.93;38.63;;;5.60;99.90;;;;;;5013075;28;20454;-72
2022/04/05 04:49:26;;;;;;;41.10;38.47;;;5.60;99.90;;;;;;5013090;28;20578;-81
2022/04/05 04:51:52;;;;;;;42.03;39.00;;;5.70;99.90;;;;;;5012766;28;20970;-79
2022/04/05 04:54:20;;;;;;;40.47;38.07;;;5.60;99.90;;;;;;5012532;28;20944;-81
2022/04/05 04:56:47;;;;;;;41.67;39.07;;;5.60;99.90;;;;;;5012369;28;20459;-73
2022/04/05 04:59:14;;;;;;;41.40;39.07;;;5.60;99.90;;;;;;5012236;28;20442;-78
2022/04/05 05:01:41;;;;;;;41.30;39.00;;;5.60;99.90;;;;;;5012560;28;20811;-79
2022/04/05 05:04:07;;;;;;;40.03;37.33;;;5.60;99.90;;;;;;5011825;28;20801;-79
2022/04/05 05:06:34;;;;;;;41.87;39.33;;;5.60;99.90;;;;;;5012582;28;20450;-79
2022/04/05 05:09:01;;;;;;;41.90;39.50;;;5.60;99.90;;;;;;5012749;28;20870;-78
2022/04/05 05:11:29;;;;;;;41.33;39.03;;;5.60;99.90;;;;;;5013204;28;20456;-78
2022/04/05 05:13:56;;;;;;;41.37;38.87;;;5.60;99.90;;;;;;5013520;28;20458;-77
2022/04/05 05:16:22;;;;;;;41.97;39.37;;;5.60;99.90;;;;;;5013261;28;20535;-78
2022/04/05 05:18:49;;;;;;;42.53;40.00;;;5.60;99.90;;;;;;5012178;28;20466;-79
2022/04/05 05:21:17;;;;;;;44.20;41.30;;;5.60;99.90;;;;;;5012496;28;20840;-81
2022/04/05 05:23:44;;;;;;;42.43;39.73;;;5.60;99.90;;;;;;5012667;28;20466;-80
2022/04/05 05:26:11;;;;;;;43.70;40.80;;;5.60;99.90;;;;;;5012620;28;20453;-81
2022/04/05 05:28:39;;;;;;;45.23;42.40;;;5.60;99.90;;;;;;5012349;28;20497;-78
2022/04/05 05:31:05;;;;;;;45.47;42.87;;;5.70;99.90;;;;;;5012395;28;20454;-79
2022/04/05 05:33:32;;;;;;;40.90;38.30;;;5.70;99.90;;;;;;5013918;28;20457;-86
2022/04/05 05:35:59;;;;;;;46.20;43.10;;;5.70;99.90;;;;;;5016604;28;20458;-88
2022/04/05 05:38:26;;;;;;;46.37;43.67;;;5.70;99.90;;;;;;5014508;28;20528;-85
2022/04/05 05:40:53;;;;;;;44.93;42.23;;;5.70;99.90;;;;;;5012899;28;20924;-86
2022/04/05 05:43:22;;;;;;;44.73;42.03;;;5.60;99.90;;;;;;5012530;28;20497;-80
2022/04/05 05:45:50;;;;;;;46.27;43.17;;;5.60;99.90;;;;;;5012348;28;20454;-78
2022/04/05 05:48:17;;;;;;;46.37;43.57;;;5.60;99.90;;;;;;5011883;28;20483;-78
2022/04/05 05:50:44;;;;;;;43.30;40.80;;;5.60;99.90;;;;;;5012365;28;20450;-80
2022/04/05 05:53:11;;;;;;;45.77;42.67;;;5.60;99.90;;;;;;5012000;28;20462;-79
2022/04/05 05:55:37;;;;;;;44.83;42.03;;;5.60;99.90;;;;;;5011814;28;20474;-77
2022/04/05 05:58:05;;;;;;;45.37;42.57;;;5.60;99.90;;;;;;5012251;28;20454;-77
2022/04/05 06:00:31;;;;;;;45.03;41.53;;;5.70;99.90;;;;;;5012113;28;20967;-77
2022/04/05 06:03:01;;;;;;;46.43;43.63;;;5.70;99.90;;;;;;5011996;28;20840;-77
2022/04/05 06:05:29;;;;;;;43.90;41.20;;;5.70;99.90;;;;;;5011957;28;20484;-78
2022/04/05 06:07:57;;;;;;;44.70;42.00;;;5.70;99.90;;;;;;5011730;28;20578;-78
2022/04/05 06:10:24;;;;;;;45.63;42.80;;;5.80;99.90;;;;;;5011903;28;20460;-79
2022/04/05 06:12:52;;;;;;;44.23;41.60;;;5.90;99.90;;;;;;5012045;28;20465;-78
2022/04/05 06:15:20;;;;;;;44.27;41.33;;;5.80;99.90;;;;;;5012307;28;20714;-83
2022/04/05 06:17:48;;;;;;;45.90;43.13;;;5.90;99.90;;;;;;5012681;28;20470;-82
2022/04/05 06:20:18;;;;;;;43.87;41.27;;;5.90;99.90;;;;;;5012367;28;20474;-84
2022/04/05 06:22:46;;;;;;;44.43;41.43;;;5.80;99.90;;;;;;5012596;28;20452;-80
2022/04/05 06:25:15;;;;;;;44.70;41.90;;;5.80;99.90;;;;;;5011849;28;20457;-80
2022/04/05 06:27:42;;;;;;;44.63;41.90;;;5.90;99.90;;;;;;5012231;28;20496;-83
2022/04/05 06:30:11;;;;;;;41.67;39.07;;;5.90;99.90;;;;;;5011776;28;20459;-82
2022/04/05 06:32:37;;;;;;;47.53;44.07;;;5.90;99.90;;;;;;5012199;28;20465;-81
2022/04/05 06:35:06;;;;;;;40.67;38.17;;;5.90;99.90;;;;;;5014992;28;20486;-85
2022/04/05 06:37:36;;;;;;;47.20;43.83;;;5.90;99.90;;;;;;5018769;28;20454;-86
2022/04/05 06:40:04;;;;;;;46.43;43.43;;;5.90;99.90;;;;;;5012510;28;20474;-84
2022/04/05 06:42:31;;;;;;;43.83;41.13;;;5.90;99.90;;;;;;5012799;28;20482;-87
2022/04/05 06:44:57;;;;;;;41.50;39.10;;;5.90;99.90;;;;;;5012993;28;20505;-84
2022/04/05 06:47:24;;;;;;;42.97;40.43;;;5.90;99.90;;;;;;5011665;28;20549;-82
2022/04/05 06:49:51;;;;;;;44.87;42.13;;;5.90;99.90;;;;;;5011825;28;21057;-81
2022/04/05 06:52:17;;;;;;;43.50;40.63;;;6.00;99.90;;;;;;5011598;28;20464;-76
2022/04/05 06:54:45;;;;;;;44.27;40.87;;;6.00;99.90;;;;;;5011491;28;20477;-79
2022/04/05 06:57:12;;;;;;;42.00;39.60;;;6.00;99.90;;;;;;5010803;28;20896;-79
2022/04/05 06:59:39;;;;;;;41.57;39.17;;;6.00;99.90;;;;;;5011716;28;20455;-79
2022/04/05 07:02:06;;;;;;;40.90;38.67;;;6.00;99.90;;;;;;5011570;28;20450;-79
2022/04/05 07:04:32;;;;;;;47.23;42.80;;;6.10;99.90;;;;;;5010754;28;20508;-80
2022/04/05 07:06:59;;;;;;;41.97;39.50;;;6.10;99.90;;;;;;5012913;28;20854;-80
2022/04/05 07:09:25;;;;;;;43.27;40.50;;;6.10;99.90;;;;;;5012030;28;20992;-80
2022/04/05 07:11:53;;;;;;;41.13;38.73;;;6.10;99.90;;;;;;5011113;28;20990;-81
2022/04/05 07:14:20;;;;;;;43.20;40.70;;;6.10;99.90;;;;;;5010208;28;20460;-79
2022/04/05 07:16:47;;;;;;;43.17;40.77;;;6.10;99.90;;;;;;5008525;28;20454;-77
2022/04/05 07:19:14;;;;;;;41.80;39.23;;;6.10;99.90;;;;;;5010488;28;20474;-76
2022/04/05 07:21:40;;;;;;;38.03;36.00;;;6.20;99.90;;;;;;5010218;28;20857;-77
2022/04/05 07:24:07;;;;;;;41.00;38.20;;;6.20;99.90;;;;;;5010186;28;20912;-76
2022/04/05 07:26:34;;;;;;;41.60;39.07;;;6.20;99.90;;;;;;5010223;28;20520;-76
2022/04/05 07:29:02;;;;;;;40.40;38.10;;;6.20;99.90;;;;;;5010268;28;20494;-75
2022/04/05 07:31:29;;;;;;;37.93;35.53;;;6.20;99.90;;;;;;5010311;28;20452;-76
2022/04/05 07:33:55;;;;;;;38.73;36.50;;;6.30;99.90;;;;;;5010287;28;20461;-76
2022/04/05 07:36:22;;;;;;;37.57;35.17;;;6.30;99.90;;;;;;5010257;28;21055;-78
2022/04/05 07:38:49;;;;;;;38.43;36.13;;;6.40;99.90;;;;;;5010216;28;21045;-78
2022/04/05 07:41:15;;;;;;;38.20;36.20;;;6.40;99.90;;;;;;5010545;28;20445;-79
2022/04/05 07:43:42;;;;;;;39.03;36.63;;;6.40;99.90;;;;;;5014532;28;20446;-78
2022/04/05 07:46:11;;;;;;;38.80;36.53;;;6.40;99.90;;;;;;5014056;28;20448;-80
2022/04/05 07:48:39;;;;;;;38.00;35.80;;;6.40;99.90;;;;;;5014247;28;20490;-80
2022/04/05 07:51:05;;;;;;;36.90;34.80;;;6.40;99.90;;;;;;5014097;28;20557;-80
2022/04/05 07:53:32;;;;;;;37.10;35.20;;;6.50;99.90;;;;;;5013610;28;20947;-80
2022/04/05 07:55:59;;;;;;;38.47;36.37;;;6.50;99.90;;;;;;5013916;28;20528;-80
2022/04/05 07:58:26;;;;;;;37.40;35.07;;;6.50;99.90;;;;;;5013857;28;20458;-79
2022/04/05 08:00:53;;;;;;;36.57;33.97;;;6.60;99.90;;;;;;5014159;28;20448;-76
2022/04/05 08:03:22;;;;;;;40.53;38.10;;;6.60;99.90;;;;;;5013996;28;20461;-77
2022/04/05 08:05:48;;;;;;;39.37;37.13;;;6.70;99.90;;;;;;5013886;28;20480;-79
2022/04/05 08:08:15;;;;;;;40.27;37.77;;;6.70;99.90;;;;;;5013808;28;20458;-77
2022/04/05 08:10:42;;;;;;;39.87;37.67;;;6.80;99.90;;;;;;5014157;28;20459;-78
2022/04/05 08:13:09;;;;;;;38.43;35.73;;;6.90;99.90;;;;;;5013749;28;20507;-76
2022/04/05 08:15:36;;;;;;;39.33;37.13;;;6.90;99.90;;;;;;5013246;28;20452;-76
2022/04/05 08:18:02;;;;;;;39.50;37.40;;;7.00;99.90;;;;;;5013008;28;20815;-77
2022/04/05 08:20:31;;;;;;;41.17;38.70;;;7.10;99.90;;;;;;5012807;28;20528;-76
2022/04/05 08:22:57;;;;;;;43.03;40.60;;;7.10;99.90;;;;;;5013166;28;20491;-78
2022/04/05 08:25:24;;;;;;;39.03;36.60;;;7.20;99.90;;;;;;5013424;28;20452;-80
2022/04/05 08:27:51;;;;;;;38.63;36.50;;;7.20;99.90;;;;;;5013730;28;20462;-80
2022/04/05 08:30:19;;;;;;;38.80;36.57;;;7.30;99.90;;;;;;5013715;28;21018;-80
2022/04/05 08:32:47;;;;;;;39.70;37.60;;;7.40;99.90;;;;;;5013616;28;20549;-80
2022/04/05 08:35:15;;;;;;;40.10;37.70;;;7.50;99.90;;;;;;5013731;28;20461;-79
2022/04/05 08:37:45;;;;;;;40.80;38.40;;;7.50;99.90;;;;;;5013306;28;20868;-78
2022/04/05 08:40:12;;;;;;;39.00;36.80;;;7.60;99.90;;;;;;5013805;28;20449;-78
2022/04/05 08:42:42;;;;;;;38.80;36.60;;;7.60;99.90;;;;;;5013699;28;20529;-79
2022/04/05 08:45:11;;;;;;;38.93;36.33;;;7.60;99.90;;;;;;5012791;28;20488;-78
2022/04/05 08:47:46;;;;;;;37.73;35.70;;;7.60;99.90;;;;;;5012561;28;20487;-76
2022/04/05 08:50:14;;;;;;;36.43;34.43;;;7.60;99.90;;;;;;5012645;28;20495;-76
2022/04/05 08:52:42;;;;;;;38.77;36.53;;;7.60;99.90;;;;;;5012441;28;20456;-76
2022/04/05 08:55:09;;;;;;;37.73;35.70;;;7.70;99.90;;;;;;5011640;28;20511;-74
2022/04/05 08:57:36;;;;;;;37.47;35.53;;;7.70;99.90;;;;;;5012098;28;20483;-74
2022/04/05 09:00:06;;;;;;;39.70;37.40;;;7.70;99.90;;;;;;5012221;28;20456;-75
2022/04/05 09:02:32;;;;;;;39.10;37.00;;;7.80;99.90;;;;;;5011831;28;20452;-74
2022/04/05 09:04:59;;;;;;;40.77;38.17;;;7.70;99.90;;;;;;5011842;28;20454;-75
2022/04/05 09:07:30;;;;;;;39.73;37.53;;;7.80;99.90;;;;;;5012199;28;20457;-74
2022/04/05 09:10:16;;;;;;;38.53;36.53;;;7.80;99.90;;;;;;5011579;28;20486;-75
2022/04/05 09:12:45;;;;;;;38.57;36.27;;;7.90;99.90;;;;;;5011816;28;20445;-74
2022/04/05 09:15:25;;;;;;;38.90;36.23;;;8.00;99.90;;;;;;5012004;28;20458;-74
2022/04/05 09:17:52;;;;;;;39.13;36.93;;;8.10;99.90;;;;;;5011994;28;21038;-76
2022/04/05 09:20:20;;;;;;;39.90;37.40;;;8.20;99.90;;;;;;5011342;28;20985;-76
2022/04/05 09:22:47;;;;;;;37.43;35.33;;;8.20;99.90;;;;;;5011817;28;20450;-76
2022/04/05 09:25:16;;;;;;;39.03;37.03;;;8.20;99.90;;;;;;5011509;28;20448;-76
2022/04/05 09:27:44;;;;;;;37.97;35.60;;;8.30;99.90;;;;;;5011261;28;20459;-76
2022/04/05 09:30:15;;;;;;;38.03;35.80;;;8.30;99.90;;;;;;5011517;28;20485;-74
2022/04/05 09:32:44;;;;;;;36.17;33.90;;;8.50;99.90;;;;;;5011779;28;20508;-76
2022/04/05 09:35:12;;;;;;;35.03;33.03;;;8.60;99.90;;;;;;5011722;28;20823;-75
2022/04/05 09:37:39;;;;;;;35.40;33.60;;;8.60;99.90;;;;;;5011532;28;20452;-74
2022/04/05 09:40:18;;;;;;;36.00;34.10;;;8.70;99.90;;;;;;5011121;28;20446;-74
2022/04/05 09:43:04;;;;;;;34.83;33.20;;;8.70;99.90;;;;;;5011352;28;20510;-75
2022/04/05 09:45:53;;;;;;;35.30;33.40;;;8.90;99.90;;;;;;5011444;28;20457;-75
2022/04/05 09:48:22;;;;;;;35.23;33.30;;;9.00;99.90;;;;;;5011061;28;20454;-77
2022/04/05 09:51:04;;;;;;;37.07;34.97;;;9.00;99.90;;;;;;5011124;28;20481;-75
2022/04/05 09:53:51;;;;;;;33.77;32.10;;;9.00;99.90;;;;;;5011175;28;20453;-75
2022/04/05 09:56:22;;;;;;;38.70;36.40;;;8.90;99.90;;;;;;5011083;28;21034;-77
2022/04/05 09:58:51;;;;;;;37.23;34.93;;;8.90;99.90;;;;;;5011053;28;20845;-77
2022/04/05 10:01:19;;;;;;;37.00;34.90;;;9.00;99.90;;;;;;5010901;28;20565;-78
2022/04/05 10:03:58;;;;;;;37.20;35.30;;;9.00;99.90;;;;;;5010752;28;21009;-77
2022/04/05 10:06:26;;;;;;;38.10;36.10;;;9.00;99.90;;;;;;5011215;28;20453;-79
2022/04/05 10:08:55;;;;;;;38.87;36.70;;;9.10;99.90;;;;;;5011474;28;20454;-79
2022/04/05 10:11:24;;;;;;;37.37;35.50;;;9.00;99.90;;;;;;5011164;28;20457;-77
2022/04/05 10:13:51;;;;;;;39.47;37.17;;;9.00;99.90;;;;;;5011512;28;20892;-79
2022/04/05 10:16:20;;;;;;;40.20;37.90;;;9.10;99.90;;;;;;5011338;28;20450;-78
2022/04/05 10:18:48;;;;;;;39.40;37.30;;;9.30;99.90;;;;;;5011049;28;20800;-80
2022/04/05 10:21:16;;;;;;;36.83;34.87;;;9.40;99.90;;;;;;5010688;28;20510;-78
2022/04/05 10:23:44;;;;;;;36.30;34.30;;;9.50;99.90;;;;;;5011355;28;20827;-78
2022/04/05 10:26:15;;;;;;;37.90;36.00;;;9.60;99.90;;;;;;5011605;28;20457;-80
2022/04/05 10:28:46;;;;;;;39.67;37.17;;;9.60;99.90;;;;;;5011389;28;20485;-77
2022/04/05 10:31:18;;;;;;;41.03;38.20;;;9.60;99.90;;;;;;5010835;28;20543;-80
2022/04/05 10:33:53;;;;;;;39.27;36.73;;;9.60;99.90;;;;;;5010737;28;20480;-79
2022/04/05 10:36:23;;;;;;;42.30;39.83;;;9.40;99.90;;;;;;5010884;28;20453;-78
2022/04/05 10:39:17;;;;;;;41.60;39.30;;;9.10;99.90;;;;;;5010667;28;20885;-77
2022/04/05 10:41:45;;;;;;;40.20;38.07;;;9.10;99.90;;;;;;5010755;28;20445;-79
2022/04/05 10:44:26;;;;;;;41.40;39.10;;;8.90;99.90;;;;;;5011257;28;20461;-78
2022/04/05 10:46:55;;;;;;;42.33;39.60;;;8.70;99.90;;;;;;5010712;28;20891;-77
2022/04/05 10:49:42;;;;;;;43.67;41.17;;;8.80;99.90;;;;;;5010291;28;20832;-79
2022/04/05 10:52:11;;;;;;;44.00;41.50;;;8.70;99.90;;;;;;5010854;28;20500;-78
2022/04/05 10:54:40;;;;;;;43.83;41.43;;;8.60;99.90;;;;;;5010565;28;20978;-78
2022/04/05 10:57:22;;;;;;;43.20;40.53;;;8.60;99.90;;;;;;5010360;28;20468;-76
2022/04/05 10:59:54;;;;;;;40.10;38.00;;;8.60;99.90;;;;;;5010269;28;20456;-74
2022/04/05 11:02:43;;;;;;;40.57;38.37;;;8.60;99.90;;;;;;5010268;28;20457;-74
2022/04/05 11:05:37;;;;;;;39.07;36.77;;;8.60;99.90;;;;;;5010293;28;20450;-75
2022/04/05 11:08:13;;;;;;;42.13;39.40;;;8.70;99.90;;;;;;5010105;28;20493;-76
2022/04/05 11:10:51;;;;;;;39.03;36.30;;;8.70;99.90;;;;;;5010349;28;20493;-77
2022/04/05 11:13:30;;;;;;;42.00;38.50;;;8.80;99.90;;;;;;5010140;28;21173;-76
2022/04/05 11:15:59;;;;;;;40.50;37.67;;;8.80;99.90;;;;;;5010388;28;21021;-76
2022/04/05 11:18:28;;;;;;;41.33;38.47;;;8.90;99.90;;;;;;5013726;28;20519;-78
2022/04/05 11:20:57;;;;;;;36.53;34.43;;;9.10;99.90;;;;;;5014258;28;20899;-78
2022/04/05 11:23:46;;;;;;;40.63;37.67;;;9.20;99.90;;;;;;5014300;28;20540;-76
2022/04/05 11:26:33;;;;;;;40.07;37.77;;;9.30;99.90;;;;;;5014070;28;20834;-76
2022/04/05 11:29:03;;;;;;;39.83;37.43;;;9.30;99.90;;;;;;5014000;28;20468;-76
2022/04/05 11:31:39;;;;;;;37.50;35.40;;;9.40;99.90;;;;;;5013888;28;20489;-76
2022/04/05 11:34:37;;;;;;;39.90;36.97;;;9.60;99.90;;;;;;5013837;28;20453;-76
2022/04/05 11:37:05;;;;;;;40.10;37.60;;;9.70;99.90;;;;;;5013744;28;20874;-76
2022/04/05 11:39:36;;;;;;;39.57;37.37;;;9.90;99.90;;;;;;5013675;28;20458;-75
2022/04/05 11:42:04;;;;;;;36.83;34.93;;;10.10;99.90;;;;;;5013619;28;20877;-76
2022/04/05 11:44:30;;;;;;;33.63;31.60;;;10.20;99.90;;;;;;5013444;28;20945;-74
2022/04/05 11:47:00;;;;;;;37.60;35.50;;;10.20;99.90;;;;;;5013611;28;21009;-76
2022/04/05 11:49:27;;;;;;;39.30;37.00;;;10.20;99.90;;;;;;5013691;28;20830;-76
2022/04/05 11:51:54;;;;;;;36.13;34.10;;;10.40;99.90;;;;;;5013811;28;20465;-76
2022/04/05 11:54:24;;;;;;;40.30;37.80;;;10.40;99.90;;;;;;5013662;28;20537;-77
2022/04/05 11:56:54;;;;;;;39.33;37.20;;;10.40;99.90;;;;;;5013457;28;20456;-77
2022/04/05 11:59:28;;;;;;;36.43;34.63;;;10.50;99.90;;;;;;5013291;28;20516;-75
2022/04/05 12:01:55;;;;;;;37.47;35.57;;;10.40;99.90;;;;;;5013329;28;21006;-76
2022/04/05 12:04:25;;;;;;;38.90;36.33;;;10.50;99.90;;;;;;5013280;28;20454;-76
2022/04/05 12:06:56;;;;;;;38.60;36.50;;;10.60;99.90;;;;;;5013167;28;20454;-76
2022/04/05 12:09:24;;;;;;;38.23;36.10;;;10.30;99.90;;;;;;5013186;28;20454;-76
2022/04/05 12:11:52;;;;;;;38.10;35.90;;;10.20;99.90;;;;;;5012976;28;20493;-75
2022/04/05 12:14:20;;;;;;;37.10;35.10;;;10.20;99.90;;;;;;5012947;28;20878;-74
2022/04/05 12:16:49;;;;;;;39.00;36.80;;;10.30;99.90;;;;;;5013015;28;20458;-76
2022/04/05 12:19:20;;;;;;;37.50;35.60;;;10.40;99.90;;;;;;5012820;28;20895;-75
2022/04/05 12:21:53;;;;;;;39.13;37.03;;;10.50;99.90;;;;;;5012597;28;20597;-75
2022/04/05 12:24:19;;;;;;;38.33;36.40;;;10.50;99.90;;;;;;5012789;28;20490;-75
2022/04/05 12:26:46;;;;;;;36.17;34.10;;;10.50;99.90;;;;;;5012651;28;20945;-75
2022/04/05 12:29:13;;;;;;;36.90;35.13;;;10.60;99.90;;;;;;5011679;28;20453;-75
2022/04/05 12:31:40;;;;;;;33.93;32.20;;;10.70;99.90;;;;;;5013003;28;20477;-75
2022/04/05 12:34:11;;;;;;;33.33;31.53;;;11.00;99.90;;;;;;5012731;28;20454;-75
2022/04/05 12:36:39;;;;;;;30.00;28.40;;;11.20;99.90;;;;;;5012841;28;20465;-75
2022/04/05 12:39:09;;;;;;;25.53;24.23;;;11.50;99.90;;;;;;5012466;28;20832;-75
2022/04/05 12:41:39;;;;;;;26.93;25.17;;;11.60;99.90;;;;;;5012590;28;20446;-76
2022/04/05 12:44:09;;;;;;;26.27;24.30;;;11.40;99.90;;;;;;5012691;28;20574;-79
2022/04/05 12:46:40;;;;;;;22.30;21.20;;;11.40;99.90;;;;;;5012627;28;20446;-76
2022/04/05 12:49:21;;;;;;;23.43;21.67;;;11.40;99.90;;;;;;5011992;28;20462;-75
2022/04/05 12:51:49;;;;;;;20.63;19.53;;;11.40;99.90;;;;;;5012580;28;20489;-74
2022/04/05 12:54:32;;;;;;;18.37;17.47;;;11.40;99.90;;;;;;5012353;28;20466;-72
2022/04/05 12:57:20;;;;;;;17.70;16.70;;;11.20;99.90;;;;;;5012587;28;20512;-75
2022/04/05 12:59:49;;;;;;;17.10;16.20;;;11.40;99.90;;;;;;5012308;28;20457;-75
2022/04/05 13:02:20;;;;;;;15.07;14.37;;;11.50;99.90;;;;;;5012338;28;20846;-75
2022/04/05 13:04:47;;;;;;;14.93;14.13;;;11.50;99.90;;;;;;5012177;28;20462;-74
2022/04/05 13:07:14;;;;;;;14.43;13.60;;;11.80;99.90;;;;;;5012328;28;20462;-75
2022/04/05 13:09:42;;;;;;;14.23;13.50;;;11.90;99.90;;;;;;5012465;28;20460;-75
2022/04/05 13:12:11;;;;;;;14.60;13.80;;;12.00;99.90;;;;;;5001703;28;20494;-75
2022/04/05 13:14:39;;;;;;;13.47;12.57;;;12.00;99.90;;;;;;5009564;28;20457;-75
2022/04/05 13:17:08;;;;;;;15.27;14.00;;;12.00;99.90;;;;;;4992872;28;20545;-75
2022/04/05 13:19:35;;;;;;;12.93;12.23;;;11.80;99.90;;;;;;4998117;28;20465;-75
2022/04/05 13:22:02;;;;;;;15.27;14.43;;;11.80;99.90;;;;;;5012109;28;21033;-75
2022/04/05 13:24:40;;;;;;;14.10;13.30;;;11.70;99.90;;;;;;5012527;28;20453;-76
2022/04/05 13:27:08;;;;;;;12.67;12.07;;;11.60;99.90;;;;;;5012078;28;20509;-75
2022/04/05 13:29:36;;;;;;;13.33;12.60;;;11.70;99.90;;;;;;4994513;28;20485;-74
2022/04/05 13:32:05;;;;;;;12.40;11.80;;;11.80;99.90;;;;;;4992659;28;20484;-75
2022/04/05 13:34:34;;;;;;;11.80;11.20;;;11.70;99.90;;;;;;4992621;28;20443;-75
2022/04/05 13:37:01;;;;;;;12.60;11.80;;;11.80;99.90;;;;;;4992231;28;20450;-74
2022/04/05 13:39:32;;;;;;;12.60;11.90;;;11.80;99.90;;;;;;4992206;28;20955;-75
2022/04/05 13:41:59;;;;;;;13.27;12.47;;;11.60;99.90;;;;;;4992763;28;20450;-75
2022/04/05 13:44:27;;;;;;;12.10;11.40;;;11.60;99.90;;;;;;4992637;28;20455;-75
2022/04/05 13:46:54;;;;;;;11.27;10.67;;;11.50;99.90;;;;;;5011880;28;20940;-74
2022/04/05 13:49:21;;;;;;;12.00;11.40;;;11.40;99.90;;;;;;5011833;28;20982;-75
2022/04/05 13:51:50;;;;;;;11.80;11.13;;;11.50;99.90;;;;;;5011890;28;20493;-74
2022/04/05 13:54:17;;;;;;;12.07;11.47;;;11.50;99.90;;;;;;5011967;28;20446;-75
2022/04/05 13:56:44;;;;;;;11.77;11.17;;;11.60;99.90;;;;;;5011943;28;20462;-75
2022/04/05 13:59:12;;;;;;;10.60;10.03;;;11.60;99.90;;;;;;5011891;28;20852;-74
2022/04/05 14:01:40;;;;;;;11.40;10.50;;;11.70;99.90;;;;;;5011609;28;20457;-74
2022/04/05 14:04:08;;;;;;;11.23;10.63;;;11.70;99.90;;;;;;5011500;28;20457;-74
2022/04/05 14:06:36;;;;;;;11.03;10.53;;;11.70;99.90;;;;;;5011523;28;20454;-75
2022/04/05 14:09:03;;;;;;;10.60;10.10;;;11.70;99.90;;;;;;5011718;28;20453;-75
2022/04/05 14:11:30;;;;;;;10.77;10.17;;;11.80;99.90;;;;;;4991682;28;20491;-75
2022/04/05 14:13:58;;;;;;;11.77;11.17;;;11.70;99.90;;;;;;4991554;28;20455;-75
2022/04/05 14:16:26;;;;;;;10.70;10.13;;;11.60;99.90;;;;;;4991340;28;20462;-74
2022/04/05 14:18:54;;;;;;;9.93;9.23;;;11.60;99.90;;;;;;4991114;28;20493;-75
2022/04/05 14:21:21;;;;;;;11.27;10.57;;;11.70;99.90;;;;;;4991098;28;20485;-74
2022/04/05 14:23:48;;;;;;;11.83;11.10;;;11.70;99.90;;;;;;4990507;28;20560;-73
2022/04/05 14:26:15;;;;;;;11.10;10.50;;;11.80;99.90;;;;;;4991067;28;20459;-74
2022/04/05 14:28:42;;;;;;;10.93;10.23;;;11.80;99.90;;;;;;4991192;28;20470;-74
2022/04/05 14:31:10;;;;;;;12.03;11.43;;;12.00;99.90;;;;;;4991067;28;20525;-73
2022/04/05 14:33:39;;;;;;;11.30;10.80;;;12.00;99.90;;;;;;4990851;28;20450;-73
2022/04/05 14:36:07;;;;;;;11.23;10.63;;;12.30;99.90;;;;;;4991136;28;20495;-74
2022/04/05 14:38:34;;;;;;;11.70;11.00;;;12.60;99.90;;;;;;4990835;28;20876;-73
2022/04/05 14:41:01;;;;;;;11.20;10.67;;;12.60;99.90;;;;;;4990880;28;20937;-72
2022/04/05 14:43:28;;;;;;;10.97;10.43;;;12.40;99.90;;;;;;4990853;28;20836;-72
2022/04/05 14:45:54;;;;;;;11.67;11.07;;;12.30;99.90;;;;;;4990993;28;20505;-73
2022/04/05 14:48:21;;;;;;;12.13;11.30;;;12.10;99.90;;;;;;4990955;28;20827;-73
2022/04/05 14:50:48;;;;;;;10.90;10.40;;;12.30;99.90;;;;;;4990469;28;20574;-72
2022/04/05 14:53:16;;;;;;;11.20;10.70;;;12.40;99.90;;;;;;4990389;28;20509;-72
2022/04/05 14:55:42;;;;;;;11.60;11.00;;;12.30;99.90;;;;;;4990577;28;20466;-72
2022/04/05 14:58:09;;;;;;;11.90;11.17;;;12.30;99.90;;;;;;4990595;28;20450;-72
2022/04/05 15:00:36;;;;;;;11.43;10.83;;;12.40;99.90;;;;;;4989070;28;20450;-72